sensor_id;sensor_type;location;lat;lon;timestamp;pressure;altitude;pressure_sealevel;temperature;humidity
56630;BME280;42502;40.732;-74.254;2023-04-05T00:01:50;100728.25;;;25.23;36.01
56630;BME280;42502;40.732;-74.254;2023-04-05T00:03:57;100737.94;;;25.22;35.73
56630;BME280;42502;40.732;-74.254;2023-04-05T00:05:58;100746.81;;;25.21;35.90
56630;BME280;42502;40.732;-74.254;2023-04-05T00:08:03;100741.94;;;25.17;35.79
56630;BME280;42502;40.732;-74.254;2023-04-05T00:10:07;100750.44;;;25.21;35.87
56630;BME280;42502;40.732;-74.254;2023-04-05T00:12:08;100748.41;;;25.18;35.78
56630;BME280;42502;40.732;-74.254;2023-04-05T00:14:09;100755.69;;;25.19;35.62
56630;BME280;42502;40.732;-74.254;2023-04-05T00:16:10;100755.22;;;25.17;35.70
56630;BME280;42502;40.732;-74.254;2023-04-05T00:18:11;100755.22;;;25.17;35.82
56630;BME280;42502;40.732;-74.254;2023-04-05T00:20:21;100756.47;;;25.16;35.65
56630;BME280;42502;40.732;-74.254;2023-04-05T00:22:24;100766.53;;;25.17;35.79
56630;BME280;42502;40.732;-74.254;2023-04-05T00:24:25;100767.38;;;25.17;35.94
56630;BME280;42502;40.732;-74.254;2023-04-05T00:26:28;100761.28;;;25.15;35.58
56630;BME280;42502;40.732;-74.254;2023-04-05T00:28:29;100767.75;;;25.16;35.46
56630;BME280;42502;40.732;-74.254;2023-04-05T00:30:30;100769.34;;;25.13;35.46
56630;BME280;42502;40.732;-74.254;2023-04-05T00:32:32;100772.16;;;25.13;35.30
56630;BME280;42502;40.732;-74.254;2023-04-05T00:34:33;100778.19;;;25.12;35.40
56630;BME280;42502;40.732;-74.254;2023-04-05T00:36:34;100774.50;;;25.08;35.65
56630;BME280;42502;40.732;-74.254;2023-04-05T00:38:35;100782.66;;;25.13;35.59
56630;BME280;42502;40.732;-74.254;2023-04-05T00:40:36;100791.16;;;25.13;35.71
56630;BME280;42502;40.732;-74.254;2023-04-05T00:42:37;100800.81;;;25.12;35.50
56630;BME280;42502;40.732;-74.254;2023-04-05T00:44:46;100808.84;;;25.10;35.66
56630;BME280;42502;40.732;-74.254;2023-04-05T00:46:47;100797.13;;;25.08;35.28
56630;BME280;42502;40.732;-74.254;2023-04-05T00:48:48;100803.19;;;25.10;35.47
56630;BME280;42502;40.732;-74.254;2023-04-05T00:50:50;100808.84;;;25.10;35.59
56630;BME280;42502;40.732;-74.254;2023-04-05T00:52:51;100813.28;;;25.07;35.52
56630;BME280;42502;40.732;-74.254;2023-04-05T00:54:53;100812.81;;;25.05;35.63
56630;BME280;42502;40.732;-74.254;2023-04-05T00:56:57;100815.25;;;25.07;35.43
56630;BME280;42502;40.732;-74.254;2023-04-05T00:58:59;100816.47;;;25.06;35.45
56630;BME280;42502;40.732;-74.254;2023-04-05T01:01:09;100824.09;;;25.01;35.49
56630;BME280;42502;40.732;-74.254;2023-04-05T01:03:16;100818.44;;;25.01;35.56
56630;BME280;42502;40.732;-74.254;2023-04-05T01:08:07;100831.38;;;25.03;35.43
56630;BME280;42502;40.732;-74.254;2023-04-05T01:10:13;100842.69;;;25.03;35.28
56630;BME280;42502;40.732;-74.254;2023-04-05T01:12:17;100840.25;;;25.01;35.43
56630;BME280;42502;40.732;-74.254;2023-04-05T01:14:24;100845.44;;;24.99;35.31
56630;BME280;42502;40.732;-74.254;2023-04-05T01:16:28;100849.84;;;24.96;35.13
56630;BME280;42502;40.732;-74.254;2023-04-05T01:18:29;100856.75;;;24.99;35.30
56630;BME280;42502;40.732;-74.254;2023-04-05T01:20:33;100853.06;;;24.95;35.21
56630;BME280;42502;40.732;-74.254;2023-04-05T01:23:09;100853.06;;;24.95;35.34
56630;BME280;42502;40.732;-74.254;2023-04-05T01:30:23;100873.59;;;24.92;35.43
56630;BME280;42502;40.732;-74.254;2023-04-05T01:32:54;100875.59;;;24.91;35.25
56630;BME280;42502;40.732;-74.254;2023-04-05T01:35:38;100878.00;;;24.89;35.29
56630;BME280;42502;40.732;-74.254;2023-04-05T01:37:44;100880.88;;;24.93;35.43
56630;BME280;42502;40.732;-74.254;2023-04-05T01:39:55;100871.53;;;24.89;35.30
56630;BME280;42502;40.732;-74.254;2023-04-05T01:42:00;100878.00;;;24.89;35.56
56630;BME280;42502;40.732;-74.254;2023-04-05T01:44:01;100876.34;;;24.88;35.42
56630;BME280;42502;40.732;-74.254;2023-04-05T01:46:02;100873.09;;;24.86;35.35
56630;BME280;42502;40.732;-74.254;2023-04-05T01:48:03;100868.66;;;24.85;35.55
56630;BME280;42502;40.732;-74.254;2023-04-05T01:50:04;100857.72;;;24.83;35.46
56630;BME280;42502;40.732;-74.254;2023-04-05T01:52:05;100862.56;;;24.83;35.75
56630;BME280;42502;40.732;-74.254;2023-04-05T01:54:07;100866.56;;;24.82;35.43
56630;BME280;42502;40.732;-74.254;2023-04-05T01:56:07;100873.00;;;24.79;35.42
56630;BME280;42502;40.732;-74.254;2023-04-05T01:58:08;100876.28;;;24.81;35.33
56630;BME280;42502;40.732;-74.254;2023-04-05T02:00:10;100877.00;;;24.78;35.53
56630;BME280;42502;40.732;-74.254;2023-04-05T02:02:11;100888.75;;;24.80;35.35
56630;BME280;42502;40.732;-74.254;2023-04-05T02:04:12;100898.41;;;24.79;35.61
56630;BME280;42502;40.732;-74.254;2023-04-05T02:06:13;100898.41;;;24.79;35.41
56630;BME280;42502;40.732;-74.254;2023-04-05T02:08:13;100898.75;;;24.74;35.29
56630;BME280;42502;40.732;-74.254;2023-04-05T02:10:16;100900.81;;;24.77;35.50
56630;BME280;42502;40.732;-74.254;2023-04-05T02:12:17;100903.25;;;24.78;35.82
56630;BME280;42502;40.732;-74.254;2023-04-05T02:14:17;100901.25;;;24.79;35.58
56630;BME280;42502;40.732;-74.254;2023-04-05T02:16:18;100900.06;;;24.80;35.67
56630;BME280;42502;40.732;-74.254;2023-04-05T02:18:19;100896.44;;;24.79;35.40
56630;BME280;42502;40.732;-74.254;2023-04-05T02:20:29;100897.59;;;24.78;35.70
56630;BME280;42502;40.732;-74.254;2023-04-05T02:22:30;100893.09;;;24.74;35.63
56630;BME280;42502;40.732;-74.254;2023-04-05T02:24:31;100905.19;;;24.74;35.56
56630;BME280;42502;40.732;-74.254;2023-04-05T02:26:32;100912.13;;;24.77;35.41
56630;BME280;42502;40.732;-74.254;2023-04-05T02:28:33;100910.81;;;24.71;35.69
56630;BME280;42502;40.732;-74.254;2023-04-05T02:30:34;100908.78;;;24.71;35.44
56630;BME280;42502;40.732;-74.254;2023-04-05T02:32:35;100912.88;;;24.74;35.44
56630;BME280;42502;40.732;-74.254;2023-04-05T02:34:36;100911.97;;;24.70;35.77
56630;BME280;42502;40.732;-74.254;2023-04-05T02:36:37;100911.59;;;24.71;35.45
56630;BME280;42502;40.732;-74.254;2023-04-05T02:38:38;100907.91;;;24.67;35.58
56630;BME280;42502;40.732;-74.254;2023-04-05T02:40:40;100918.00;;;24.68;35.74
56630;BME280;42502;40.732;-74.254;2023-04-05T02:42:41;100924.47;;;24.69;35.53
56630;BME280;42502;40.732;-74.254;2023-04-05T02:44:42;100924.47;;;24.69;35.33
56630;BME280;42502;40.732;-74.254;2023-04-05T02:46:43;100931.34;;;24.68;35.44
56630;BME280;42502;40.732;-74.254;2023-04-05T02:48:44;100928.50;;;24.68;35.61
56630;BME280;42502;40.732;-74.254;2023-04-05T02:50:49;100931.72;;;24.66;35.65
56630;BME280;42502;40.732;-74.254;2023-04-05T02:52:51;100918.72;;;24.61;35.62
56630;BME280;42502;40.732;-74.254;2023-04-05T02:54:52;100932.88;;;24.65;35.67
56630;BME280;42502;40.732;-74.254;2023-04-05T02:56:55;100920.31;;;24.62;35.74
56630;BME280;42502;40.732;-74.254;2023-04-05T02:58:59;100924.00;;;24.63;35.48
56630;BME280;42502;40.732;-74.254;2023-04-05T03:01:01;100927.63;;;24.63;35.48
56630;BME280;42502;40.732;-74.254;2023-04-05T03:03:06;100924.38;;;24.61;35.75
56630;BME280;42502;40.732;-74.254;2023-04-05T03:05:07;100917.13;;;24.64;35.44
56630;BME280;42502;40.732;-74.254;2023-04-05T03:07:08;100912.22;;;24.61;35.54
56630;BME280;42502;40.732;-74.254;2023-04-05T03:09:09;100918.72;;;24.61;35.42
56630;BME280;42502;40.732;-74.254;2023-04-05T03:11:10;100911.44;;;24.60;35.73
56630;BME280;42502;40.732;-74.254;2023-04-05T03:13:12;100914.63;;;24.59;35.58
56630;BME280;42502;40.732;-74.254;2023-04-05T03:15:14;100918.63;;;24.58;35.52
56630;BME280;42502;40.732;-74.254;2023-04-05T03:17:14;100916.53;;;24.55;35.69
56630;BME280;42502;40.732;-74.254;2023-04-05T03:19:15;100917.00;;;24.57;35.43
56630;BME280;42502;40.732;-74.254;2023-04-05T03:21:18;100912.91;;;24.54;35.65
56630;BME280;42502;40.732;-74.254;2023-04-05T03:23:18;100910.84;;;24.51;35.76
56630;BME280;42502;40.732;-74.254;2023-04-05T03:25:19;100923.41;;;24.54;35.52
56630;BME280;42502;40.732;-74.254;2023-04-05T03:27:20;100932.66;;;24.54;35.47
56630;BME280;42502;40.732;-74.254;2023-04-05T03:29:25;100936.69;;;24.53;35.54
56630;BME280;42502;40.732;-74.254;2023-04-05T03:31:26;100926.50;;;24.48;35.69
56630;BME280;42502;40.732;-74.254;2023-04-05T03:33:32;100939.88;;;24.52;35.69
56630;BME280;42502;40.732;-74.254;2023-04-05T03:35:33;100935.81;;;24.49;35.77
56630;BME280;42502;40.732;-74.254;2023-04-05T03:37:33;100930.59;;;24.51;35.59
56630;BME280;42502;40.732;-74.254;2023-04-05T03:39:34;100935.34;;;24.47;35.70
56630;BME280;42502;40.732;-74.254;2023-04-05T03:41:36;100939.44;;;24.50;35.53
56630;BME280;42502;40.732;-74.254;2023-04-05T03:43:37;100948.28;;;24.48;35.55
56630;BME280;42502;40.732;-74.254;2023-04-05T03:45:38;100949.47;;;24.47;35.88
56630;BME280;42502;40.732;-74.254;2023-04-05T03:47:39;100932.41;;;24.40;35.60
56630;BME280;42502;40.732;-74.254;2023-04-05T03:49:40;100946.66;;;24.47;35.57
56630;BME280;42502;40.732;-74.254;2023-04-05T03:51:40;100946.22;;;24.45;35.72
56630;BME280;42502;40.732;-74.254;2023-04-05T03:53:41;100949.03;;;24.45;35.89
56630;BME280;42502;40.732;-74.254;2023-04-05T03:55:42;100955.06;;;24.43;35.59
56630;BME280;42502;40.732;-74.254;2023-04-05T03:57:48;100965.53;;;24.43;35.44
56630;BME280;42502;40.732;-74.254;2023-04-05T03:59:49;100966.75;;;24.42;35.57
56630;BME280;42502;40.732;-74.254;2023-04-05T04:01:50;100965.91;;;24.41;35.84
56630;BME280;42502;40.732;-74.254;2023-04-05T04:03:51;100974.75;;;24.40;35.62
56630;BME280;42502;40.732;-74.254;2023-04-05T04:05:51;100975.50;;;24.37;35.80
56630;BME280;42502;40.732;-74.254;2023-04-05T04:07:52;100977.09;;;24.34;35.87
56630;BME280;42502;40.732;-74.254;2023-04-05T04:09:53;100980.34;;;24.36;35.61
56630;BME280;42502;40.732;-74.254;2023-04-05T04:11:55;100993.66;;;24.36;35.81
56630;BME280;42502;40.732;-74.254;2023-04-05T04:13:56;100988.38;;;24.34;35.47
56630;BME280;42502;40.732;-74.254;2023-04-05T04:15:57;101003.31;;;24.35;35.52
56630;BME280;42502;40.732;-74.254;2023-04-05T04:17:58;101014.16;;;24.33;35.55
56630;BME280;42502;40.732;-74.254;2023-04-05T04:19:59;101016.16;;;24.32;35.92
56630;BME280;42502;40.732;-74.254;2023-04-05T04:22:00;101021.78;;;24.32;35.61
56630;BME280;42502;40.732;-74.254;2023-04-05T04:24:01;101008.03;;;24.30;35.95
56630;BME280;42502;40.732;-74.254;2023-04-05T04:26:02;101000.31;;;24.27;35.71
56630;BME280;42502;40.732;-74.254;2023-04-05T04:28:04;101000.31;;;24.27;36.00
56630;BME280;42502;40.732;-74.254;2023-04-05T04:30:10;101022.91;;;24.27;35.71
56630;BME280;42502;40.732;-74.254;2023-04-05T04:32:15;101026.09;;;24.26;35.73
56630;BME280;42502;40.732;-74.254;2023-04-05T04:34:16;101018.84;;;24.25;35.83
56630;BME280;42502;40.732;-74.254;2023-04-05T04:36:18;101029.31;;;24.24;35.81
56630;BME280;42502;40.732;-74.254;2023-04-05T04:38:34;101027.69;;;24.23;35.81
56630;BME280;42502;40.732;-74.254;2023-04-05T04:40:36;101033.75;;;24.25;35.92
56630;BME280;42502;40.732;-74.254;2023-04-05T04:42:49;101037.75;;;24.24;35.79
56630;BME280;42502;40.732;-74.254;2023-04-05T04:44:50;101027.69;;;24.23;36.01
56630;BME280;42502;40.732;-74.254;2023-04-05T04:46:53;101034.06;;;24.20;35.72
56630;BME280;42502;40.732;-74.254;2023-04-05T04:48:55;101039.72;;;24.20;36.06
56630;BME280;42502;40.732;-74.254;2023-04-05T04:50:56;101038.81;;;24.16;35.99
56630;BME280;42502;40.732;-74.254;2023-04-05T04:52:59;101057.38;;;24.17;35.85
56630;BME280;42502;40.732;-74.254;2023-04-05T04:55:00;101064.22;;;24.16;35.89
56630;BME280;42502;40.732;-74.254;2023-04-05T04:57:02;101060.13;;;24.13;35.95
56630;BME280;42502;40.732;-74.254;2023-04-05T04:59:02;101069.41;;;24.14;35.79
56630;BME280;42502;40.732;-74.254;2023-04-05T05:01:07;101062.88;;;24.10;36.02
56630;BME280;42502;40.732;-74.254;2023-04-05T05:03:11;101056.50;;;24.13;35.83
56630;BME280;42502;40.732;-74.254;2023-04-05T05:05:13;101066.94;;;24.12;35.92
56630;BME280;42502;40.732;-74.254;2023-04-05T05:07:13;101064.50;;;24.11;35.78
56630;BME280;42502;40.732;-74.254;2023-04-05T05:09:15;101072.97;;;24.11;35.69
56630;BME280;42502;40.732;-74.254;2023-04-05T05:11:15;101077.38;;;24.08;35.92
56630;BME280;42502;40.732;-74.254;2023-04-05T05:13:16;101086.25;;;24.10;35.87
56630;BME280;42502;40.732;-74.254;2023-04-05T05:15:17;101088.28;;;24.10;35.85
56630;BME280;42502;40.732;-74.254;2023-04-05T05:17:18;101089.47;;;24.09;35.75
56630;BME280;42502;40.732;-74.254;2023-04-05T05:19:19;101094.28;;;24.08;35.94
56630;BME280;42502;40.732;-74.254;2023-04-05T05:21:20;101100.75;;;24.09;36.02
56630;BME280;42502;40.732;-74.254;2023-04-05T05:23:21;101105.94;;;24.07;36.08
56630;BME280;42502;40.732;-74.254;2023-04-05T05:25:25;101092.59;;;24.04;35.84
56630;BME280;42502;40.732;-74.254;2023-04-05T05:27:26;101095.41;;;24.04;36.08
56630;BME280;42502;40.732;-74.254;2023-04-05T05:29:27;101087.66;;;24.01;35.93
56630;BME280;42502;40.732;-74.254;2023-04-05T05:31:28;101087.75;;;24.04;35.97
56630;BME280;42502;40.732;-74.254;2023-04-05T05:33:32;101088.09;;;24.03;36.06
56630;BME280;42502;40.732;-74.254;2023-04-05T05:35:33;101090.50;;;24.01;35.93
56630;BME280;42502;40.732;-74.254;2023-04-05T05:37:34;101091.66;;;24.00;35.89
56630;BME280;42502;40.732;-74.254;2023-04-05T05:39:36;101097.75;;;24.02;35.97
56630;BME280;42502;40.732;-74.254;2023-04-05T05:41:37;101098.13;;;24.00;35.89
56630;BME280;42502;40.732;-74.254;2023-04-05T05:43:37;101102.16;;;23.99;35.95
56630;BME280;42502;40.732;-74.254;2023-04-05T05:45:38;101098.50;;;23.99;35.85
56630;BME280;42502;40.732;-74.254;2023-04-05T05:47:39;101098.06;;;23.97;35.67
56630;BME280;42502;40.732;-74.254;2023-04-05T05:49:43;101110.97;;;23.98;35.89
56630;BME280;42502;40.732;-74.254;2023-04-05T05:51:43;101102.03;;;23.95;35.81
56630;BME280;42502;40.732;-74.254;2023-04-05T05:53:47;101108.06;;;23.94;35.98
56630;BME280;42502;40.732;-74.254;2023-04-05T05:55:48;101108.91;;;23.94;35.88
56630;BME280;42502;40.732;-74.254;2023-04-05T05:57:49;101116.44;;;23.90;35.95
56630;BME280;42502;40.732;-74.254;2023-04-05T05:59:52;101114.06;;;23.92;35.80
56630;BME280;42502;40.732;-74.254;2023-04-05T06:01:53;101114.38;;;23.87;36.06
56630;BME280;42502;40.732;-74.254;2023-04-05T06:03:54;101114.00;;;23.89;35.86
56630;BME280;42502;40.732;-74.254;2023-04-05T06:05:56;101118.09;;;23.91;35.89
56630;BME280;42502;40.732;-74.254;2023-04-05T06:07:57;101126.94;;;23.90;35.70
56630;BME280;42502;40.732;-74.254;2023-04-05T06:09:58;101122.47;;;23.89;35.81
56630;BME280;42502;40.732;-74.254;2023-04-05T06:12:02;101122.03;;;23.87;35.91
56630;BME280;42502;40.732;-74.254;2023-04-05T06:14:03;101129.28;;;23.88;36.09
56630;BME280;42502;40.732;-74.254;2023-04-05T06:16:04;101127.66;;;23.87;36.03
56630;BME280;42502;40.732;-74.254;2023-04-05T06:18:05;101121.19;;;23.86;35.71
56630;BME280;42502;40.732;-74.254;2023-04-05T06:20:09;101108.94;;;23.82;35.83
56630;BME280;42502;40.732;-74.254;2023-04-05T06:22:11;101125.19;;;23.85;36.00
56630;BME280;42502;40.732;-74.254;2023-04-05T06:24:11;101123.53;;;23.84;35.76
56630;BME280;42502;40.732;-74.254;2023-04-05T06:26:16;101124.72;;;23.83;35.83
56630;BME280;42502;40.732;-74.254;2023-04-05T06:28:18;101110.97;;;23.82;35.84
56630;BME280;42502;40.732;-74.254;2023-04-05T06:30:19;101099.97;;;23.76;35.72
56630;BME280;42502;40.732;-74.254;2023-04-05T06:32:20;101104.78;;;23.76;35.69
56630;BME280;42502;40.732;-74.254;2023-04-05T06:34:21;101114.16;;;23.80;35.92
56630;BME280;42502;40.732;-74.254;2023-04-05T06:36:22;101112.34;;;23.72;36.04
56630;BME280;42502;40.732;-74.254;2023-04-05T06:38:22;101127.44;;;23.80;36.03
56630;BME280;42502;40.732;-74.254;2023-04-05T06:40:23;101133.47;;;23.78;36.04
56630;BME280;42502;40.732;-74.254;2023-04-05T06:42:24;101133.09;;;23.80;35.82
56630;BME280;42502;40.732;-74.254;2023-04-05T06:44:25;101137.91;;;23.79;35.81
56630;BME280;42502;40.732;-74.254;2023-04-05T06:46:26;101132.09;;;23.72;35.88
56630;BME280;42502;40.732;-74.254;2023-04-05T06:48:27;101137.81;;;23.75;35.65
56630;BME280;42502;40.732;-74.254;2023-04-05T06:50:28;101145.47;;;23.75;35.82
56630;BME280;42502;40.732;-74.254;2023-04-05T06:52:29;101149.84;;;23.72;35.64
56630;BME280;42502;40.732;-74.254;2023-04-05T06:54:32;101150.28;;;23.74;35.81
56630;BME280;42502;40.732;-74.254;2023-04-05T06:56:33;101147.81;;;23.73;35.94
56630;BME280;42502;40.732;-74.254;2023-04-05T06:58:33;101152.66;;;23.72;35.85
56630;BME280;42502;40.732;-74.254;2023-04-05T07:00:34;101145.72;;;23.70;35.89
56630;BME280;42502;40.732;-74.254;2023-04-05T07:02:35;101143.28;;;23.68;35.85
56630;BME280;42502;40.732;-74.254;2023-04-05T07:04:37;101160.31;;;23.72;35.72
56630;BME280;42502;40.732;-74.254;2023-04-05T07:06:38;101153.47;;;23.73;35.80
56630;BME280;42502;40.732;-74.254;2023-04-05T07:08:39;101145.66;;;23.66;35.78
56630;BME280;42502;40.732;-74.254;2023-04-05T07:10:40;101156.66;;;23.71;35.84
56630;BME280;42502;40.732;-74.254;2023-04-05T07:12:41;101158.22;;;23.69;35.96
56630;BME280;42502;40.732;-74.254;2023-04-05T07:14:41;101158.59;;;23.67;35.94
56630;BME280;42502;40.732;-74.254;2023-04-05T07:16:42;101148.84;;;23.65;35.78
56630;BME280;42502;40.732;-74.254;2023-04-05T07:18:43;101161.78;;;23.66;35.93
56630;BME280;42502;40.732;-74.254;2023-04-05T07:20:46;101155.66;;;23.64;36.08
56630;BME280;42502;40.732;-74.254;2023-04-05T07:22:48;101152.84;;;23.64;35.93
56630;BME280;42502;40.732;-74.254;2023-04-05T07:24:49;101158.41;;;23.60;36.11
56630;BME280;42502;40.732;-74.254;2023-04-05T07:26:51;101165.69;;;23.61;35.72
56630;BME280;42502;40.732;-74.254;2023-04-05T07:28:52;101176.97;;;23.61;35.94
56630;BME280;42502;40.732;-74.254;2023-04-05T07:30:53;101191.88;;;23.62;35.72
56630;BME280;42502;40.732;-74.254;2023-04-05T07:32:54;101189.88;;;23.62;35.88
56630;BME280;42502;40.732;-74.254;2023-04-05T07:34:55;101197.88;;;23.60;36.09
56630;BME280;42502;40.732;-74.254;2023-04-05T07:36:56;101199.06;;;23.59;35.88
56630;BME280;42502;40.732;-74.254;2023-04-05T07:38:57;101191.31;;;23.56;35.83
56630;BME280;42502;40.732;-74.254;2023-04-05T07:40:57;101196.16;;;23.55;36.06
56630;BME280;42502;40.732;-74.254;2023-04-05T07:42:58;101196.50;;;23.54;35.97
56630;BME280;42502;40.732;-74.254;2023-04-05T07:44:59;101214.72;;;23.56;36.02
56630;BME280;42502;40.732;-74.254;2023-04-05T07:47:00;101209.41;;;23.55;35.85
56630;BME280;42502;40.732;-74.254;2023-04-05T07:49:01;101206.94;;;23.53;35.80
56630;BME280;42502;40.732;-74.254;2023-04-05T07:51:05;101208.16;;;23.52;35.90
56630;BME280;42502;40.732;-74.254;2023-04-05T07:53:06;101208.53;;;23.51;35.91
56630;BME280;42502;40.732;-74.254;2023-04-05T07:55:10;101211.22;;;23.47;35.75
56630;BME280;42502;40.732;-74.254;2023-04-05T07:57:20;101216.97;;;23.51;35.86
56630;BME280;42502;40.732;-74.254;2023-04-05T07:59:21;101216.97;;;23.51;35.88
56630;BME280;42502;40.732;-74.254;2023-04-05T08:01:22;101205.59;;;23.47;35.74
56630;BME280;42502;40.732;-74.254;2023-04-05T08:03:28;101203.13;;;23.46;35.84
56630;BME280;42502;40.732;-74.254;2023-04-05T08:05:29;101210.41;;;23.47;36.04
56630;BME280;42502;40.732;-74.254;2023-04-05T08:07:30;101216.88;;;23.47;35.97
56630;BME280;42502;40.732;-74.254;2023-04-05T08:09:31;101209.50;;;23.42;36.03
56630;BME280;42502;40.732;-74.254;2023-04-05T08:11:32;101207.97;;;23.45;35.80
56630;BME280;42502;40.732;-74.254;2023-04-05T08:13:33;101229.34;;;23.46;35.76
56630;BME280;42502;40.732;-74.254;2023-04-05T08:15:36;101224.78;;;23.41;35.86
56630;BME280;42502;40.732;-74.254;2023-04-05T08:17:36;101236.88;;;23.42;36.07
56630;BME280;42502;40.732;-74.254;2023-04-05T08:19:40;101240.88;;;23.41;35.91
56630;BME280;42502;40.732;-74.254;2023-04-05T08:21:41;101243.31;;;23.42;35.83
56630;BME280;42502;40.732;-74.254;2023-04-05T08:23:45;101235.13;;;23.37;35.66
56630;BME280;42502;40.732;-74.254;2023-04-05T08:25:46;101247.34;;;23.41;35.95
56630;BME280;42502;40.732;-74.254;2023-04-05T08:27:47;101246.97;;;23.43;35.90
56630;BME280;42502;40.732;-74.254;2023-04-05T08:29:48;101241.69;;;23.41;35.92
56630;BME280;42502;40.732;-74.254;2023-04-05T08:31:49;101246.06;;;23.39;35.91
56630;BME280;42502;40.732;-74.254;2023-04-05T08:33:50;101247.69;;;23.40;35.86
56630;BME280;42502;40.732;-74.254;2023-04-05T08:35:51;101239.97;;;23.37;35.75
56630;BME280;42502;40.732;-74.254;2023-04-05T08:37:52;101232.69;;;23.36;36.26
56630;BME280;42502;40.732;-74.254;2023-04-05T08:39:53;101231.03;;;23.35;35.96
56630;BME280;42502;40.732;-74.254;2023-04-05T08:44:09;101229.41;;;23.34;35.76
56630;BME280;42502;40.732;-74.254;2023-04-05T08:46:13;101239.97;;;23.37;35.81
56630;BME280;42502;40.732;-74.254;2023-04-05T08:48:16;101230.22;;;23.34;35.87
56630;BME280;42502;40.732;-74.254;2023-04-05T08:50:17;101225.38;;;23.35;35.77
56630;BME280;42502;40.732;-74.254;2023-04-05T08:52:18;101224.94;;;23.33;35.73
56630;BME280;42502;40.732;-74.254;2023-04-05T08:54:19;101238.22;;;23.32;35.73
56630;BME280;42502;40.732;-74.254;2023-04-05T08:56:32;101237.75;;;23.30;35.86
56630;BME280;42502;40.732;-74.254;2023-04-05T08:58:34;101244.22;;;23.31;35.87
56630;BME280;42502;40.732;-74.254;2023-04-05T09:00:37;101244.22;;;23.31;35.83
56630;BME280;42502;40.732;-74.254;2023-04-05T09:02:39;101237.66;;;23.27;35.64
56630;BME280;42502;40.732;-74.254;2023-04-05T09:04:43;101235.56;;;23.23;36.06
56630;BME280;42502;40.732;-74.254;2023-04-05T09:06:46;101231.56;;;23.24;35.59
56630;BME280;42502;40.732;-74.254;2023-04-05T09:08:49;101236.28;;;23.20;35.89
56630;BME280;42502;40.732;-74.254;2023-04-05T09:10:50;101242.84;;;23.24;36.05
56630;BME280;42502;40.732;-74.254;2023-04-05T09:12:54;101237.91;;;23.21;35.68
56630;BME280;42502;40.732;-74.254;2023-04-05T09:14:55;101245.53;;;23.21;35.58
56630;BME280;42502;40.732;-74.254;2023-04-05T09:17:03;101248.81;;;23.23;35.86
56630;BME280;42502;40.732;-74.254;2023-04-05T09:19:04;101256.47;;;23.22;35.83
56630;BME280;42502;40.732;-74.254;2023-04-05T09:21:05;101270.81;;;23.17;35.65
56630;BME280;42502;40.732;-74.254;2023-04-05T09:23:06;101266.81;;;23.18;35.93
56630;BME280;42502;40.732;-74.254;2023-04-05T09:25:07;101277.72;;;23.20;35.65
56630;BME280;42502;40.732;-74.254;2023-04-05T09:27:13;101278.56;;;23.20;35.74
56630;BME280;42502;40.732;-74.254;2023-04-05T09:29:28;101283.72;;;23.18;35.59
56630;BME280;42502;40.732;-74.254;2023-04-05T09:31:34;101289.34;;;23.18;35.76
56630;BME280;42502;40.732;-74.254;2023-04-05T09:33:35;101290.44;;;23.14;35.69
56630;BME280;42502;40.732;-74.254;2023-04-05T09:35:36;101302.63;;;23.18;35.67
56630;BME280;42502;40.732;-74.254;2023-04-05T09:37:50;101302.19;;;23.16;35.62
56630;BME280;42502;40.732;-74.254;2023-04-05T09:40:02;101295.72;;;23.15;35.67
56630;BME280;42502;40.732;-74.254;2023-04-05T09:42:07;101286.09;;;23.16;35.86
56630;BME280;42502;40.732;-74.254;2023-04-05T09:44:08;101281.06;;;23.10;35.56
56630;BME280;42502;40.732;-74.254;2023-04-05T09:46:35;101299.25;;;23.12;35.63
56630;BME280;42502;40.732;-74.254;2023-04-05T09:48:48;101302.91;;;23.13;35.65
56630;BME280;42502;40.732;-74.254;2023-04-05T09:50:49;101303.72;;;23.13;35.56
56630;BME280;42502;40.732;-74.254;2023-04-05T09:52:50;101306.88;;;23.12;35.67
56630;BME280;42502;40.732;-74.254;2023-04-05T09:54:56;101312.88;;;23.10;35.65
56630;BME280;42502;40.732;-74.254;2023-04-05T09:56:58;101314.88;;;23.10;35.43
56630;BME280;42502;40.732;-74.254;2023-04-05T09:59:09;101326.16;;;23.10;35.78
56630;BME280;42502;40.732;-74.254;2023-04-05T10:01:10;101311.34;;;23.00;35.47
56630;BME280;42502;40.732;-74.254;2023-04-05T10:03:11;101326.34;;;23.04;35.82
56630;BME280;42502;40.732;-74.254;2023-04-05T10:05:12;101325.91;;;23.02;35.72
56630;BME280;42502;40.732;-74.254;2023-04-05T10:07:16;101331.63;;;23.06;35.63
56630;BME280;42502;40.732;-74.254;2023-04-05T10:09:17;101336.47;;;23.05;35.70
56630;BME280;42502;40.732;-74.254;2023-04-05T10:11:19;101334.72;;;23.01;35.81
56630;BME280;42502;40.732;-74.254;2023-04-05T10:13:21;101343.63;;;23.03;35.73
56630;BME280;42502;40.732;-74.254;2023-04-05T10:15:23;101349.25;;;23.03;35.61
56630;BME280;42502;40.732;-74.254;2023-04-05T10:19:46;101348.81;;;23.01;35.59
56630;BME280;42502;40.732;-74.254;2023-04-05T10:21:49;101363.69;;;23.01;35.52
56630;BME280;42502;40.732;-74.254;2023-04-05T10:26:45;101372.50;;;23.00;35.81
56630;BME280;42502;40.732;-74.254;2023-04-05T10:28:51;101371.59;;;22.96;35.66
56630;BME280;42502;40.732;-74.254;2023-04-05T10:33:38;101390.97;;;22.97;35.50
56630;BME280;42502;40.732;-74.254;2023-04-05T10:35:49;101384.63;;;23.00;35.62
56630;BME280;42502;40.732;-74.254;2023-04-05T10:40:03;101395.31;;;22.95;35.65
56630;BME280;42502;40.732;-74.254;2023-04-05T10:42:12;101397.31;;;22.94;35.67
56630;BME280;42502;40.732;-74.254;2023-04-05T10:44:16;101391.53;;;22.91;35.47
56630;BME280;42502;40.732;-74.254;2023-04-05T10:46:19;101388.00;;;22.94;35.69